createdAt,value
2018-03-14T00:02:18.304Z,5.84
2018-03-14T00:04:45.915Z,6.00
2018-03-14T00:07:13.551Z,6.04
2018-03-14T00:09:41.153Z,6.22
2018-03-14T00:12:08.782Z,6.34
2018-03-14T00:14:36.485Z,6.26
2018-03-14T00:17:04.531Z,6.28
2018-03-14T00:19:32.151Z,6.35
2018-03-14T00:21:59.762Z,6.29
2018-03-14T00:24:27.393Z,6.21
2018-03-14T00:26:55.014Z,6.23
2018-03-14T00:29:22.648Z,6.13
2018-03-14T00:31:50.262Z,6.15
2018-03-14T00:34:18.181Z,6.09
2018-03-14T00:36:45.868Z,6.02
2018-03-14T00:39:13.487Z,6.16
2018-03-14T00:41:41.125Z,5.87
2018-03-14T00:44:08.809Z,5.65
2018-03-14T00:46:36.519Z,5.81
2018-03-14T00:49:04.162Z,5.72
2018-03-14T00:51:32.018Z,5.82
2018-03-14T00:53:59.635Z,5.74
2018-03-14T00:56:27.321Z,5.59
2018-03-14T00:58:55.037Z,5.64
2018-03-14T01:01:22.815Z,5.41
2018-03-14T01:03:50.543Z,5.57
2018-03-14T01:06:18.235Z,5.44
2018-03-14T01:08:45.963Z,5.52
2018-03-14T01:11:13.662Z,5.69
2018-03-14T01:13:41.347Z,5.69
2018-03-14T01:16:08.998Z,5.76
2018-03-14T01:18:36.680Z,5.69
2018-03-14T01:21:04.392Z,5.59
2018-03-14T01:23:32.082Z,5.65
2018-03-14T01:25:59.906Z,5.64
2018-03-14T01:28:27.515Z,5.67
2018-03-14T01:30:55.204Z,5.71
2018-03-14T01:33:22.922Z,5.76
2018-03-14T01:35:50.539Z,5.59
2018-03-14T01:38:18.255Z,5.54
2018-03-14T01:40:45.945Z,5.64
2018-03-14T01:43:13.767Z,5.52
2018-03-14T01:45:41.377Z,5.61
2018-03-14T01:48:09.071Z,5.59
2018-03-14T01:50:36.774Z,5.55
2018-03-14T01:53:16.282Z,5.71
2018-03-14T01:55:43.993Z,5.73
2018-03-14T01:58:11.675Z,5.76
2018-03-14T02:00:39.316Z,5.85
2018-03-14T02:03:06.951Z,5.60
2018-03-14T02:05:34.644Z,5.75
2018-03-14T02:08:02.274Z,5.89
2018-03-14T02:10:29.889Z,5.96
2018-03-14T02:12:57.520Z,5.82
2018-03-14T02:15:25.128Z,5.75
2018-03-14T02:17:52.820Z,5.40
2018-03-14T02:20:20.453Z,5.47
2018-03-14T02:22:48.152Z,5.56
2018-03-14T02:25:15.869Z,5.56
2018-03-14T02:27:43.571Z,5.64
2018-03-14T02:30:11.182Z,5.54
2018-03-14T02:32:38.893Z,5.56
2018-03-14T02:35:06.675Z,5.50
2018-03-14T02:37:34.317Z,5.57
2018-03-14T02:40:01.927Z,5.55
2018-03-14T02:42:29.645Z,5.59
2018-03-14T02:44:57.340Z,5.64
2018-03-14T02:47:24.925Z,5.70
2018-03-14T02:49:52.532Z,5.73
2018-03-14T02:52:20.125Z,5.80
2018-03-14T02:54:47.754Z,5.83
2018-03-14T02:57:15.344Z,5.71
2018-03-14T02:59:42.935Z,5.84
2018-03-14T03:02:10.616Z,5.85
2018-03-14T03:04:38.296Z,5.84
2018-03-14T03:07:05.955Z,5.68
2018-03-14T03:09:33.545Z,5.35
2018-03-14T03:12:01.212Z,5.48
2018-03-14T03:14:28.899Z,5.42
2018-03-14T03:16:56.500Z,5.48
2018-03-14T03:19:24.196Z,5.51
2018-03-14T03:21:51.864Z,5.59
2018-03-14T03:24:19.533Z,5.53
2018-03-14T03:26:47.224Z,5.40
2018-03-14T03:29:14.901Z,5.40
2018-03-14T03:31:42.774Z,5.29
2018-03-14T03:34:10.446Z,5.49
2018-03-14T03:36:38.123Z,5.36
2018-03-14T03:39:05.815Z,5.17
2018-03-14T03:41:33.405Z,5.11
2018-03-14T03:44:01.119Z,5.35
2018-03-14T03:46:28.751Z,5.28
2018-03-14T03:48:56.423Z,5.47
2018-03-14T03:51:24.106Z,5.64
2018-03-14T03:53:51.847Z,5.57
2018-03-14T03:56:19.519Z,5.69
2018-03-14T03:58:47.132Z,5.60
2018-03-14T04:01:14.797Z,5.26
2018-03-14T04:03:42.453Z,5.22
2018-03-14T04:06:10.151Z,5.28
2018-03-14T04:08:37.766Z,5.39
2018-03-14T04:11:05.477Z,5.44
2018-03-14T04:13:33.149Z,5.56
2018-03-14T04:16:00.818Z,5.68
2018-03-14T04:18:28.491Z,5.51
2018-03-14T04:20:56.149Z,5.38
2018-03-14T04:23:23.765Z,5.34
2018-03-14T04:25:51.453Z,5.37
2018-03-14T04:28:19.119Z,5.36
2018-03-14T04:30:46.813Z,5.43
2018-03-14T04:33:14.429Z,5.38
2018-03-14T04:35:42.067Z,5.48
2018-03-14T04:38:09.652Z,5.38
2018-03-14T04:40:37.316Z,5.24
2018-03-14T04:43:05.021Z,5.40
2018-03-14T04:45:32.696Z,5.30
2018-03-14T04:48:00.408Z,5.51
2018-03-14T04:50:28.072Z,5.49
2018-03-14T04:52:55.759Z,5.39
2018-03-14T04:55:23.460Z,5.17
2018-03-14T04:57:51.123Z,5.15
2018-03-14T05:00:18.920Z,5.23
2018-03-14T05:02:46.596Z,5.06
2018-03-14T05:05:14.188Z,5.18
2018-03-14T05:07:41.875Z,5.32
2018-03-14T05:10:09.548Z,5.34
2018-03-14T05:12:37.399Z,5.39
2018-03-14T05:15:05.485Z,5.60
2018-03-14T05:17:33.158Z,5.72
2018-03-14T05:20:00.889Z,5.66
2018-03-14T05:22:28.565Z,5.61
2018-03-14T05:24:56.364Z,5.72
2018-03-14T05:27:24.042Z,5.61
2018-03-14T05:29:51.741Z,5.67
2018-03-14T05:32:19.373Z,5.57
2018-03-14T05:34:47.055Z,5.57
2018-03-14T05:37:14.801Z,5.86
2018-03-14T05:39:42.395Z,5.97
2018-03-14T05:42:10.077Z,5.61
2018-03-14T05:44:37.691Z,5.73
2018-03-14T05:47:05.301Z,5.82
2018-03-14T05:49:32.930Z,5.76
2018-03-14T05:52:00.611Z,5.53
2018-03-14T05:54:28.297Z,5.61
2018-03-14T05:56:55.985Z,5.61
2018-03-14T05:59:23.648Z,5.81
2018-03-14T06:01:51.451Z,5.81
2018-03-14T06:04:19.073Z,5.85
2018-03-14T06:06:46.737Z,5.72
2018-03-14T06:09:14.714Z,5.91
2018-03-14T06:11:42.376Z,6.00
2018-03-14T06:14:10.229Z,6.02
2018-03-14T06:16:37.823Z,6.13
2018-03-14T06:19:05.420Z,6.22
2018-03-14T06:21:33.021Z,6.11
2018-03-14T06:24:00.621Z,5.81
2018-03-14T06:26:28.746Z,5.86
2018-03-14T06:28:56.353Z,6.16
2018-03-14T06:31:23.973Z,6.20
2018-03-14T06:33:51.592Z,6.02
2018-03-14T06:36:19.203Z,6.03
2018-03-14T06:38:47.491Z,6.19
2018-03-14T06:41:15.094Z,6.25
2018-03-14T06:43:42.676Z,6.14
2018-03-14T06:46:10.284Z,5.99
2018-03-14T06:48:37.991Z,5.85
2018-03-14T06:51:05.630Z,6.07
2018-03-14T06:53:33.232Z,6.04
2018-03-14T06:56:00.825Z,6.07
2018-03-14T06:58:40.131Z,6.35
2018-03-14T07:01:19.628Z,6.26
2018-03-14T07:03:59.086Z,6.38
2018-03-14T07:06:26.675Z,6.39
2018-03-14T07:08:54.289Z,6.46
2018-03-14T07:11:21.897Z,6.33
2018-03-14T07:13:49.865Z,6.44
2018-03-14T07:16:17.460Z,6.45
2018-03-14T07:18:45.090Z,6.49
2018-03-14T07:21:12.718Z,5.95
2018-03-14T07:23:40.387Z,6.21
2018-03-14T07:26:08.101Z,6.41
2018-03-14T07:28:35.792Z,6.53
2018-03-14T07:31:03.598Z,6.54
2018-03-14T07:33:31.183Z,6.49
2018-03-14T07:35:58.820Z,6.66
2018-03-14T07:38:26.448Z,6.69
2018-03-14T07:40:54.035Z,6.76
2018-03-14T07:43:21.657Z,6.64
2018-03-14T07:45:49.272Z,6.62
2018-03-14T07:48:17.051Z,6.60
2018-03-14T07:50:48.704Z,6.58
2018-03-14T07:53:16.675Z,6.62
2018-03-14T07:55:46.718Z,6.47
2018-03-14T07:58:14.304Z,6.57
2018-03-14T08:00:41.929Z,6.89
2018-03-14T08:03:09.532Z,6.86
2018-03-14T08:05:37.156Z,6.57
2018-03-14T08:08:04.750Z,6.39
2018-03-14T08:10:32.388Z,6.50
2018-03-14T08:13:01.060Z,6.33
2018-03-14T08:15:29.017Z,6.37
2018-03-14T08:17:56.983Z,6.81
2018-03-14T08:20:24.576Z,6.36
2018-03-14T08:22:52.243Z,6.24
2018-03-14T08:25:19.942Z,6.47
2018-03-14T08:27:47.960Z,6.45
2018-03-14T08:30:15.552Z,6.38
2018-03-14T08:32:43.358Z,6.35
2018-03-14T08:35:10.978Z,6.55
2018-03-14T08:37:38.571Z,6.88
2018-03-14T08:40:06.180Z,6.87
2018-03-14T08:42:33.800Z,6.94
2018-03-14T08:45:01.459Z,6.81
2018-03-14T08:47:29.054Z,6.88
2018-03-14T08:49:56.644Z,7.13
2018-03-14T08:52:24.260Z,6.94
2018-03-14T08:54:52.096Z,7.13
2018-03-14T08:57:20.175Z,7.44
2018-03-14T08:59:47.935Z,7.36
2018-03-14T09:02:16.751Z,7.48
2018-03-14T09:04:44.359Z,7.04
2018-03-14T09:07:12.386Z,7.19
2018-03-14T09:09:39.998Z,7.05
2018-03-14T09:12:07.645Z,7.04
2018-03-14T09:14:35.341Z,7.27
2018-03-14T09:17:02.942Z,7.22
2018-03-14T09:19:31.109Z,7.38
2018-03-14T09:21:58.879Z,7.52
2018-03-14T09:24:26.459Z,7.65
2018-03-14T09:26:54.232Z,7.60
2018-03-14T09:29:21.816Z,7.61
2018-03-14T09:31:49.444Z,7.46
2018-03-14T09:34:17.068Z,7.51
2018-03-14T09:36:44.720Z,7.24
2018-03-14T09:39:12.336Z,7.74
2018-03-14T09:41:39.914Z,7.72
2018-03-14T09:44:07.621Z,7.96
2018-03-14T09:46:35.208Z,7.96
2018-03-14T09:49:03.377Z,7.95
2018-03-14T09:51:34.124Z,7.86
2018-03-14T09:54:02.085Z,7.79
2018-03-14T09:56:29.677Z,7.65
2018-03-14T09:58:57.273Z,7.40
2018-03-14T10:01:24.891Z,7.71
2018-03-14T10:03:52.487Z,7.63
2018-03-14T10:06:20.459Z,7.46
2018-03-14T10:08:48.253Z,7.60
2018-03-14T10:11:15.858Z,7.16
2018-03-14T10:13:43.496Z,6.99
2018-03-14T10:16:11.318Z,6.83
2018-03-14T10:18:39.313Z,6.86
2018-03-14T10:21:07.184Z,7.30
2018-03-14T10:23:34.773Z,7.48
2018-03-14T10:26:02.392Z,7.62
2018-03-14T10:28:29.977Z,7.57
2018-03-14T10:30:57.612Z,7.35
2018-03-14T10:33:25.272Z,7.29
2018-03-14T10:35:53.136Z,7.57
2018-03-14T10:38:20.800Z,7.63
2018-03-14T10:40:48.402Z,7.63
2018-03-14T10:43:16.047Z,7.51
2018-03-14T10:45:43.665Z,7.59
2018-03-14T10:48:11.573Z,7.44
2018-03-14T10:50:39.635Z,7.43
2018-03-14T10:53:07.481Z,7.52
2018-03-14T10:55:35.076Z,7.72
2018-03-14T10:58:02.677Z,7.89
2018-03-14T11:00:35.806Z,7.69
2018-03-14T11:03:03.403Z,7.66
2018-03-14T11:05:31.103Z,7.21
2018-03-14T11:07:58.691Z,7.53
2018-03-14T11:10:28.213Z,7.72
2018-03-14T11:12:55.812Z,7.74
2018-03-14T11:15:23.616Z,7.66
2018-03-14T11:17:51.213Z,7.53
2018-03-14T11:20:18.972Z,7.47
2018-03-14T11:22:46.861Z,7.63
2018-03-14T11:25:14.657Z,7.50
2018-03-14T11:27:42.670Z,7.38
2018-03-14T11:30:10.618Z,7.34
2018-03-14T11:32:38.363Z,7.49
2018-03-14T11:35:05.959Z,7.42
2018-03-14T11:37:33.560Z,7.76
2018-03-14T11:40:01.181Z,7.64
2018-03-14T11:42:28.781Z,7.73
2018-03-14T11:44:58.025Z,7.80
2018-03-14T11:47:26.124Z,7.80
2018-03-14T11:49:53.713Z,7.86
2018-03-14T11:52:21.359Z,7.95
2018-03-14T11:54:49.045Z,8.00
2018-03-14T11:57:16.973Z,8.08
2018-03-14T11:59:44.813Z,8.13
2018-03-14T12:02:12.474Z,8.03
2018-03-14T12:04:40.864Z,8.28
2018-03-14T12:07:08.511Z,8.13
2018-03-14T12:09:36.243Z,8.34
2018-03-14T12:12:03.894Z,8.09
2018-03-14T12:14:32.101Z,8.39
2018-03-14T12:16:59.709Z,8.21
2018-03-14T12:19:27.326Z,8.27
2018-03-14T12:21:54.940Z,8.51
2018-03-14T12:24:22.536Z,8.73
2018-03-14T12:26:50.456Z,8.39
2018-03-14T12:29:18.330Z,8.61
2018-03-14T12:31:45.969Z,8.97
2018-03-14T12:34:13.930Z,8.69
2018-03-14T12:36:41.516Z,8.46
2018-03-14T12:39:09.144Z,9.03
2018-03-14T12:41:36.735Z,8.59
2018-03-14T12:44:04.350Z,8.75
2018-03-14T12:46:31.933Z,8.42
2018-03-14T12:48:59.564Z,8.38
2018-03-14T12:51:27.166Z,8.60
2018-03-14T12:53:54.757Z,8.42
2018-03-14T12:56:22.617Z,8.59
2018-03-14T12:58:50.372Z,8.61
2018-03-14T13:01:18.023Z,8.59
2018-03-14T13:03:45.611Z,8.88
2018-03-14T13:06:13.443Z,8.68
2018-03-14T13:08:41.039Z,8.50
2018-03-14T13:11:08.673Z,8.70
2018-03-14T13:13:36.543Z,8.56
2018-03-14T13:16:04.284Z,8.55
2018-03-14T13:18:31.900Z,8.57
2018-03-14T13:20:59.484Z,8.39
2018-03-14T13:23:27.293Z,8.38
2018-03-14T13:25:55.483Z,8.29
2018-03-14T13:28:23.356Z,8.38
2018-03-14T13:30:50.980Z,8.51
2018-03-14T13:33:18.582Z,8.59
2018-03-14T13:35:47.964Z,8.87
2018-03-14T13:38:15.553Z,8.68
2018-03-14T13:40:43.284Z,8.60
2018-03-14T13:43:10.876Z,8.74
2018-03-14T13:45:38.456Z,8.73
2018-03-14T13:48:06.091Z,8.60
2018-03-14T13:50:33.683Z,8.70
2018-03-14T13:53:01.305Z,8.71
2018-03-14T13:55:29.194Z,8.86
2018-03-14T13:57:57.438Z,8.87
2018-03-14T14:00:25.072Z,8.86
2018-03-14T14:02:52.672Z,9.00
2018-03-14T14:05:20.327Z,9.17
2018-03-14T14:07:47.920Z,9.36
2018-03-14T14:10:15.546Z,9.36
2018-03-14T14:12:43.151Z,9.34
2018-03-14T14:15:11.065Z,9.36
2018-03-14T14:17:39.058Z,9.23
2018-03-14T14:20:06.643Z,9.05
2018-03-14T14:22:34.276Z,8.99
2018-03-14T14:25:01.924Z,9.27
2018-03-14T14:27:29.812Z,9.17
2018-03-14T14:29:57.685Z,9.07
2018-03-14T14:32:25.540Z,9.11
2018-03-14T14:34:53.148Z,9.02
2018-03-14T14:37:22.319Z,9.12
2018-03-14T14:39:50.476Z,9.10
2018-03-14T14:42:18.068Z,9.18
2018-03-14T14:44:45.684Z,9.34
2018-03-14T14:47:13.272Z,9.30
2018-03-14T14:49:41.038Z,9.37
2018-03-14T14:52:08.626Z,9.48
2018-03-14T14:54:36.248Z,9.49
2018-03-14T14:57:05.592Z,9.67
2018-03-14T14:59:33.532Z,9.70
2018-03-14T15:02:01.153Z,9.84
2018-03-14T15:04:29.286Z,10.04
2018-03-14T15:06:57.204Z,10.09
2018-03-14T15:09:24.811Z,10.17
2018-03-14T15:11:52.528Z,10.01
2018-03-14T15:14:20.629Z,10.12
2018-03-14T15:16:48.593Z,10.18
2018-03-14T15:19:16.209Z,10.20
2018-03-14T15:21:43.885Z,10.00
2018-03-14T15:24:11.660Z,10.15
2018-03-14T15:26:39.556Z,10.00
2018-03-14T15:29:07.369Z,10.09
2018-03-14T15:31:35.051Z,9.87
2018-03-14T15:34:02.661Z,9.94
2018-03-14T15:36:30.324Z,10.16
2018-03-14T15:38:57.893Z,10.18
2018-03-14T15:41:25.706Z,10.18
2018-03-14T15:43:53.296Z,10.23
2018-03-14T15:46:20.900Z,10.29
2018-03-14T15:48:48.537Z,10.21
2018-03-14T15:51:16.300Z,10.26
2018-03-14T15:53:44.157Z,10.36
2018-03-14T15:56:12.072Z,10.36
2018-03-14T15:58:40.392Z,10.25
2018-03-14T16:01:08.041Z,10.31
2018-03-14T16:03:35.636Z,10.22
2018-03-14T16:06:03.260Z,10.18
2018-03-14T16:08:30.850Z,10.16
2018-03-14T16:10:58.874Z,10.03
2018-03-14T16:13:26.490Z,10.04
2018-03-14T16:15:54.139Z,10.08
2018-03-14T16:18:21.737Z,9.83
2018-03-14T16:20:49.324Z,9.81
2018-03-14T16:23:17.000Z,9.82
2018-03-14T16:25:44.893Z,9.88
2018-03-14T16:28:12.760Z,9.78
2018-03-14T16:30:40.349Z,9.76
2018-03-14T16:33:08.789Z,9.76
2018-03-14T16:35:36.516Z,9.79
2018-03-14T16:38:04.106Z,9.75
2018-03-14T16:40:31.716Z,9.67
2018-03-14T16:42:59.326Z,9.60
2018-03-14T16:45:27.316Z,9.50
2018-03-14T16:47:54.949Z,9.50
2018-03-14T16:50:22.817Z,9.39
2018-03-14T16:52:56.169Z,9.33
2018-03-14T16:55:24.616Z,9.39
2018-03-14T16:57:52.497Z,9.21
2018-03-14T17:00:20.308Z,9.15
2018-03-14T17:02:47.914Z,9.17
2018-03-14T17:05:15.871Z,9.15
2018-03-14T17:08:00.980Z,9.16
2018-03-14T17:10:29.512Z,9.18
2018-03-14T17:13:04.036Z,9.18
2018-03-14T17:15:31.688Z,9.07
2018-03-14T17:17:59.291Z,9.14
2018-03-14T17:20:26.911Z,9.00
2018-03-14T17:22:54.918Z,9.06
2018-03-14T17:25:22.663Z,9.08
2018-03-14T17:27:50.444Z,9.16
2018-03-14T17:30:18.074Z,9.08
2018-03-14T17:32:45.699Z,8.96
2018-03-14T17:35:13.294Z,9.08
2018-03-14T17:37:40.920Z,9.12
2018-03-14T17:40:08.524Z,9.19
2018-03-14T17:42:36.135Z,9.14
2018-03-14T17:45:03.727Z,8.98
2018-03-14T17:47:31.513Z,9.01
2018-03-14T17:49:59.107Z,8.90
2018-03-14T17:52:26.704Z,8.85
2018-03-14T17:54:54.344Z,8.63
2018-03-14T17:57:22.218Z,8.60
2018-03-14T17:59:50.262Z,8.61
2018-03-14T18:02:17.859Z,8.62
2018-03-14T18:04:45.496Z,8.56
2018-03-14T18:07:13.093Z,8.40
2018-03-14T18:09:40.686Z,8.37
2018-03-14T18:12:08.306Z,8.32
2018-03-14T18:14:35.922Z,8.36
2018-03-14T18:17:03.542Z,8.44
2018-03-14T18:19:31.129Z,8.33
2018-03-14T18:21:58.748Z,8.37
2018-03-14T18:24:26.422Z,8.36
2018-03-14T18:26:54.346Z,8.36
2018-03-14T18:29:22.313Z,8.34
2018-03-14T18:31:49.934Z,8.25
2018-03-14T18:34:17.568Z,8.23
2018-03-14T18:36:45.180Z,8.18
2018-03-14T18:39:12.772Z,8.16
2018-03-14T18:41:40.393Z,8.12
2018-03-14T18:44:08.378Z,8.09
2018-03-14T18:46:36.120Z,8.12
2018-03-14T18:49:03.712Z,8.00
2018-03-14T18:51:31.362Z,7.95
2018-03-14T18:53:58.982Z,7.92
2018-03-14T18:56:26.633Z,7.94
2018-03-14T18:58:54.244Z,7.81
2018-03-14T19:01:21.896Z,7.74
2018-03-14T19:03:49.777Z,7.70
2018-03-14T19:06:17.378Z,7.66
2018-03-14T19:08:44.978Z,7.64
2018-03-14T19:11:12.611Z,7.71
2018-03-14T19:13:40.209Z,7.63
2018-03-14T19:16:07.856Z,7.65
2018-03-14T19:18:35.512Z,7.68
2018-03-14T19:21:03.107Z,7.60
2018-03-14T19:23:30.716Z,7.58
2018-03-14T19:25:58.751Z,7.44
2018-03-14T19:28:26.368Z,7.35
2018-03-14T19:30:53.959Z,7.35
2018-03-14T19:33:21.826Z,7.31
2018-03-14T19:35:49.415Z,7.31
2018-03-14T19:38:17.047Z,7.24
2018-03-14T19:40:44.670Z,7.34
2018-03-14T19:43:12.272Z,7.36
2018-03-14T19:45:39.882Z,7.29
2018-03-14T19:48:07.476Z,7.18
2018-03-14T19:50:35.092Z,7.20
2018-03-14T19:53:02.725Z,7.12
2018-03-14T19:55:30.514Z,6.92
2018-03-14T19:57:58.107Z,6.81
2018-03-14T20:00:25.882Z,6.80
2018-03-14T20:02:53.501Z,6.63
2018-03-14T20:05:21.092Z,6.65
2018-03-14T20:07:48.703Z,6.74
2018-03-14T20:10:16.293Z,6.63
2018-03-14T20:12:43.903Z,6.61
2018-03-14T20:15:11.500Z,6.58
2018-03-14T20:17:39.117Z,6.50
2018-03-14T20:20:06.714Z,6.60
2018-03-14T20:22:34.359Z,6.49
2018-03-14T20:25:01.954Z,6.45
2018-03-14T20:27:29.564Z,6.25
2018-03-14T20:29:57.182Z,6.17
2018-03-14T20:32:24.818Z,5.97
2018-03-14T20:34:52.449Z,5.98
2018-03-14T20:37:20.084Z,5.81
2018-03-14T20:39:47.728Z,5.83
2018-03-14T20:42:15.323Z,5.82
2018-03-14T20:44:42.924Z,5.70
2018-03-14T20:47:10.541Z,5.81
2018-03-14T20:49:38.147Z,5.75
2018-03-14T20:52:05.760Z,5.73
2018-03-14T20:54:33.352Z,5.73
2018-03-14T20:57:00.984Z,5.79
2018-03-14T20:59:28.670Z,5.74
2018-03-14T21:01:56.450Z,5.87
2018-03-14T21:04:24.061Z,5.85
2018-03-14T21:06:51.650Z,5.87
2018-03-14T21:09:19.288Z,5.82
2018-03-14T21:11:46.888Z,5.79
2018-03-14T21:14:14.530Z,5.75
2018-03-14T21:16:42.128Z,5.82
2018-03-14T21:19:10.086Z,5.82
2018-03-14T21:21:37.714Z,5.62
2018-03-14T21:24:06.120Z,5.64
2018-03-14T21:26:33.828Z,5.62
2018-03-14T21:29:01.418Z,5.51
2018-03-14T21:31:29.056Z,5.49
2018-03-14T21:33:56.659Z,5.44
2018-03-14T21:36:24.283Z,5.32
2018-03-14T21:38:51.882Z,5.27
2018-03-14T21:41:19.489Z,5.19
2018-03-14T21:43:47.162Z,5.09
2018-03-14T21:46:14.749Z,5.19
2018-03-14T21:48:42.399Z,5.29
2018-03-14T21:51:10.007Z,5.19
2018-03-14T21:53:37.969Z,5.11
2018-03-14T21:56:05.555Z,5.13
2018-03-14T21:58:33.152Z,5.27
2018-03-14T22:01:00.846Z,5.27
2018-03-14T22:03:28.567Z,5.27
2018-03-14T22:05:56.443Z,5.10
2018-03-14T22:08:24.046Z,5.06
2018-03-14T22:10:51.678Z,5.16
2018-03-14T22:13:19.271Z,5.17
2018-03-14T22:15:46.951Z,5.14
2018-03-14T22:18:14.577Z,4.97
2018-03-14T22:20:42.272Z,5.03
2018-03-14T22:23:09.884Z,4.97
2018-03-14T22:25:37.579Z,5.05
2018-03-14T22:28:05.433Z,4.98
2018-03-14T22:30:33.044Z,5.07
2018-03-14T22:33:00.643Z,5.03
2018-03-14T22:35:28.339Z,5.03
2018-03-14T22:37:56.017Z,5.05
2018-03-14T22:40:23.631Z,5.06
2018-03-14T22:42:51.221Z,4.97
2018-03-14T22:45:19.139Z,5.07
2018-03-14T22:47:46.745Z,5.07
2018-03-14T22:50:14.432Z,4.88
2018-03-14T22:52:42.040Z,4.80
2018-03-14T22:55:09.660Z,4.87
2018-03-14T22:57:37.352Z,4.84
2018-03-14T23:00:04.941Z,4.54
2018-03-14T23:02:32.533Z,4.69
2018-03-14T23:05:00.279Z,4.74
2018-03-14T23:07:27.910Z,4.73
2018-03-14T23:09:55.651Z,4.53
2018-03-14T23:12:23.329Z,4.52
2018-03-14T23:14:50.928Z,4.59
2018-03-14T23:17:18.548Z,4.58
2018-03-14T23:19:46.216Z,4.63
2018-03-14T23:22:13.899Z,4.60
2018-03-14T23:24:41.576Z,4.64
2018-03-14T23:27:09.445Z,4.71
2018-03-14T23:29:37.118Z,4.60
2018-03-14T23:32:04.699Z,4.58
2018-03-14T23:34:32.404Z,4.56
2018-03-14T23:37:00.860Z,4.60
2018-03-14T23:39:28.562Z,4.54
2018-03-14T23:41:56.228Z,4.45
2018-03-14T23:44:24.205Z,4.55
2018-03-14T23:46:51.800Z,4.49
2018-03-14T23:49:19.574Z,4.55
2018-03-14T23:51:48.394Z,4.59
2018-03-14T23:54:16.078Z,4.58
2018-03-14T23:56:43.696Z,4.48
2018-03-14T23:59:11.372Z,4.39
